createdAt,value
2022-08-26T00:00:04.360Z,13.75
2022-08-26T00:02:42.544Z,12.27
2022-08-26T00:05:12.512Z,13.93
2022-08-26T00:07:43.384Z,11.45
2022-08-26T00:10:13.680Z,14.82
2022-08-26T00:12:44.116Z,12.38
2022-08-26T00:15:20.225Z,13.30
2022-08-26T00:17:50.499Z,12.48
2022-08-26T00:20:23.508Z,14.70
2022-08-26T00:22:53.457Z,11.80
2022-08-26T00:25:23.267Z,11.75
2022-08-26T00:27:53.176Z,14.13
2022-08-26T00:30:28.108Z,16.17
2022-08-26T00:32:58.017Z,17.60
2022-08-26T00:35:28.518Z,11.27
2022-08-26T00:37:58.940Z,15.27
2022-08-26T00:40:32.277Z,13.90
2022-08-26T00:43:02.248Z,15.65
2022-08-26T00:45:43.183Z,17.10
2022-08-26T00:48:13.443Z,13.27
2022-08-26T00:50:45.967Z,13.23
2022-08-26T00:53:26.041Z,16.50
2022-08-26T00:56:01.420Z,15.50
2022-08-26T00:58:32.741Z,12.60
2022-08-26T01:01:05.492Z,13.25
2022-08-26T01:03:37.167Z,16.80
2022-08-26T01:06:12.510Z,14.80
2022-08-26T01:08:43.256Z,14.25
2022-08-26T01:11:13.999Z,13.20
2022-08-26T01:13:44.189Z,16.45
2022-08-26T01:16:18.738Z,13.73
2022-08-26T01:18:50.712Z,14.70
2022-08-26T01:21:28.035Z,14.83
2022-08-26T01:24:02.671Z,13.70
2022-08-26T01:26:36.562Z,16.40
2022-08-26T01:29:08.369Z,17.30
2022-08-26T01:31:41.830Z,15.55
2022-08-26T01:34:16.919Z,16.25
2022-08-26T01:36:50.705Z,15.88
2022-08-26T01:39:24.020Z,14.43
2022-08-26T01:41:57.130Z,16.08
2022-08-26T01:44:32.580Z,13.40
2022-08-26T01:47:03.025Z,14.57
2022-08-26T01:49:37.015Z,14.45
2022-08-26T01:52:08.323Z,13.70
2022-08-26T01:54:43.075Z,14.20
2022-08-26T01:57:17.447Z,13.95
2022-08-26T01:59:47.148Z,15.40
2022-08-26T02:02:16.913Z,13.95
2022-08-26T02:04:49.925Z,13.68
2022-08-26T02:07:20.661Z,13.15
2022-08-26T02:09:53.852Z,14.25
2022-08-26T02:12:23.790Z,13.55
2022-08-26T02:14:59.125Z,13.90
2022-08-26T02:17:39.001Z,18.93
2022-08-26T02:20:13.193Z,15.10
2022-08-26T02:22:45.450Z,18.70
2022-08-26T02:25:23.048Z,16.17
2022-08-26T02:27:56.629Z,19.05
2022-08-26T02:30:29.085Z,18.77
2022-08-26T02:33:03.731Z,17.83
2022-08-26T02:35:34.959Z,17.93
2022-08-26T02:38:09.827Z,20.67
2022-08-26T02:40:44.056Z,18.05
2022-08-26T02:43:14.087Z,16.67
2022-08-26T02:45:44.343Z,19.30
2022-08-26T02:48:18.844Z,17.58
2022-08-26T02:50:48.876Z,17.70
2022-08-26T02:53:24.481Z,20.92
2022-08-26T02:55:57.427Z,18.92
2022-08-26T02:58:29.428Z,19.00
2022-08-26T03:00:59.212Z,22.88
2022-08-26T03:03:29.247Z,22.75
2022-08-26T03:06:00.395Z,27.02
2022-08-26T03:08:29.894Z,30.02
2022-08-26T03:11:02.611Z,24.05
2022-08-26T03:13:32.892Z,29.20
2022-08-26T03:16:03.275Z,31.10
2022-08-26T03:18:33.016Z,32.10
2022-08-26T03:21:08.556Z,33.72
2022-08-26T03:23:38.486Z,46.15
2022-08-26T03:26:11.755Z,37.80
2022-08-26T03:29:02.730Z,38.95
2022-08-26T03:31:30.377Z,40.77
2022-08-26T03:34:00.659Z,40.00
2022-08-26T03:36:30.596Z,38.72
2022-08-26T03:39:01.026Z,40.63
2022-08-26T03:41:33.882Z,44.65
2022-08-26T03:44:04.218Z,44.08
2022-08-26T03:46:34.624Z,47.88
2022-08-26T03:49:05.869Z,44.20
2022-08-26T03:51:38.821Z,45.47
2022-08-26T03:54:09.582Z,48.97
2022-08-26T03:56:41.897Z,44.33
2022-08-26T03:59:11.623Z,49.97
2022-08-26T04:01:41.858Z,58.10
2022-08-26T04:04:15.517Z,51.25
2022-08-26T04:06:46.152Z,55.72
2022-08-26T04:09:18.563Z,52.67
2022-08-26T04:11:51.628Z,57.50
2022-08-26T04:14:23.885Z,60.47
2022-08-26T04:16:55.331Z,59.63
2022-08-26T04:19:25.972Z,67.50
2022-08-26T04:21:56.343Z,61.20
2022-08-26T04:24:28.881Z,70.00
2022-08-26T04:27:02.153Z,59.17
2022-08-26T04:29:32.330Z,69.82
2022-08-26T04:32:02.978Z,66.32
2022-08-26T04:34:32.890Z,69.07
2022-08-26T04:37:03.635Z,74.53
2022-08-26T04:39:35.909Z,82.68
2022-08-26T04:42:09.042Z,100.65
2022-08-26T04:44:39.848Z,92.40
2022-08-26T04:47:09.703Z,110.30
2022-08-26T04:49:41.008Z,103.15
2022-08-26T04:52:11.880Z,96.43
2022-08-26T04:54:42.319Z,95.85
2022-08-26T04:57:15.024Z,90.00
2022-08-26T04:59:45.256Z,96.43
2022-08-26T05:02:16.265Z,93.78
2022-08-26T05:04:45.948Z,100.70
2022-08-26T05:07:15.603Z,90.25
2022-08-26T05:09:47.377Z,100.43
2022-08-26T05:12:19.681Z,85.00
2022-08-26T05:14:49.344Z,94.70
2022-08-26T05:17:19.050Z,91.07
2022-08-26T05:19:48.763Z,91.75
2022-08-26T05:22:20.216Z,87.60
2022-08-26T05:24:50.131Z,81.65
2022-08-26T05:27:22.428Z,101.07
2022-08-26T05:29:54.526Z,91.82
2022-08-26T05:32:24.504Z,117.05
2022-08-26T05:34:57.113Z,95.55
2022-08-26T05:37:28.298Z,89.68
2022-08-26T05:39:58.106Z,85.32
2022-08-26T05:42:30.459Z,82.45
2022-08-26T05:45:00.134Z,82.18
2022-08-26T05:47:29.824Z,82.72
2022-08-26T05:50:00.568Z,81.30
2022-08-26T05:52:30.290Z,87.37
2022-08-26T05:55:00.148Z,70.65
2022-08-26T05:57:37.445Z,69.35
2022-08-26T06:00:11.391Z,66.60
2022-08-26T06:02:41.892Z,81.60
2022-08-26T06:05:12.044Z,83.07
2022-08-26T06:07:54.259Z,70.28
2022-08-26T06:10:32.856Z,93.00
2022-08-26T06:13:09.278Z,102.18
2022-08-26T06:15:45.693Z,81.78
2022-08-26T06:18:16.853Z,62.10
2022-08-26T06:20:53.709Z,79.72
2022-08-26T06:23:40.987Z,89.95
2022-08-26T06:26:11.015Z,69.65
2022-08-26T06:28:45.486Z,72.72
2022-08-26T06:31:15.682Z,64.77
2022-08-26T06:33:46.046Z,70.53
2022-08-26T06:36:21.062Z,58.08
2022-08-26T06:38:51.000Z,58.75
2022-08-26T06:41:22.985Z,66.97
2022-08-26T06:43:55.235Z,70.63
2022-08-26T06:46:25.946Z,69.07
2022-08-26T06:48:58.178Z,66.38
2022-08-26T06:51:29.461Z,59.75
2022-08-26T06:54:00.277Z,73.30
2022-08-26T06:56:32.337Z,59.25
2022-08-26T06:59:07.618Z,63.38
2022-08-26T07:01:43.039Z,62.75
2022-08-26T07:04:14.565Z,81.40
2022-08-26T07:06:48.862Z,63.67
2022-08-26T07:09:19.338Z,66.88
2022-08-26T07:11:51.789Z,64.80
2022-08-26T07:14:26.607Z,76.47
2022-08-26T07:17:01.901Z,65.30
2022-08-26T07:19:31.980Z,78.55
2022-08-26T07:22:03.445Z,71.13
2022-08-26T07:24:35.458Z,93.10
2022-08-26T07:27:07.385Z,102.07
2022-08-26T07:29:42.770Z,87.70
2022-08-26T07:32:13.285Z,93.28
2022-08-26T07:34:43.919Z,99.53
2022-08-26T07:37:14.202Z,93.07
2022-08-26T07:39:44.481Z,90.93
2022-08-26T07:42:15.897Z,92.75
2022-08-26T07:44:51.098Z,104.68
2022-08-26T07:47:25.709Z,102.00
2022-08-26T07:49:57.973Z,99.63
2022-08-26T07:52:29.501Z,99.17
2022-08-26T07:55:01.610Z,103.20
2022-08-26T07:57:33.780Z,97.18
2022-08-26T08:00:12.112Z,92.55
2022-08-26T08:02:44.970Z,94.22
2022-08-26T08:05:18.489Z,105.10
2022-08-26T08:07:48.559Z,97.53
2022-08-26T08:10:26.623Z,94.13
2022-08-26T08:12:59.089Z,95.72
2022-08-26T08:15:33.581Z,96.47
2022-08-26T08:18:06.713Z,87.18
2022-08-26T08:20:59.283Z,94.53
2022-08-26T08:23:35.508Z,96.45
2022-08-26T08:26:05.759Z,111.97
2022-08-26T08:28:38.062Z,95.20
2022-08-26T08:31:10.446Z,102.00
2022-08-26T08:33:40.138Z,88.32
2022-08-26T08:36:10.538Z,89.70
2022-08-26T08:38:48.416Z,78.35
2022-08-26T08:41:32.443Z,78.33
2022-08-26T08:44:03.492Z,87.57
2022-08-26T08:46:35.848Z,99.47
2022-08-26T08:49:07.550Z,97.73
2022-08-26T08:51:42.842Z,96.40
2022-08-26T08:54:13.510Z,89.75
2022-08-26T08:56:45.631Z,97.70
2022-08-26T08:59:18.161Z,99.13
2022-08-26T09:01:58.303Z,118.53
2022-08-26T09:05:15.129Z,107.20
2022-08-26T09:07:48.857Z,85.65
2022-08-26T09:10:37.692Z,77.50
2022-08-26T09:13:16.391Z,66.13
2022-08-26T09:15:53.520Z,56.90
2022-08-26T09:18:37.630Z,56.35
2022-08-26T09:21:09.556Z,59.72
2022-08-26T09:23:41.944Z,55.33
2022-08-26T09:26:18.506Z,53.58
2022-08-26T09:28:50.545Z,54.72
2022-08-26T09:31:25.172Z,47.05
2022-08-26T09:34:17.330Z,48.28
2022-08-26T09:36:49.142Z,53.25
2022-08-26T09:39:45.379Z,36.45
2022-08-26T09:42:17.302Z,38.63
2022-08-26T09:44:58.436Z,30.63
2022-08-26T09:47:31.678Z,24.80
2022-08-26T09:50:09.456Z,46.72
2022-08-26T09:52:40.615Z,46.67
2022-08-26T09:55:16.074Z,31.23
2022-08-26T09:57:51.711Z,26.77
2022-08-26T10:00:30.725Z,23.65
2022-08-26T10:03:02.618Z,26.52
2022-08-26T10:05:42.284Z,33.75
2022-08-26T10:08:23.264Z,24.23
2022-08-26T10:10:53.794Z,20.13
2022-08-26T10:13:29.475Z,24.23
2022-08-26T10:16:05.580Z,22.45
2022-08-26T10:18:36.592Z,23.08
2022-08-26T10:21:13.088Z,20.00
2022-08-26T10:23:45.734Z,18.13
2022-08-26T10:26:21.036Z,24.83
2022-08-26T10:28:53.064Z,19.90
2022-08-26T10:31:30.225Z,22.27
2022-08-26T10:34:08.337Z,19.13
2022-08-26T10:37:14.845Z,27.27
2022-08-26T10:39:49.132Z,19.90
2022-08-26T10:42:25.957Z,21.00
2022-08-26T10:45:02.285Z,18.05
2022-08-26T10:47:37.341Z,20.38
2022-08-26T10:53:59.623Z,26.30
2022-08-26T10:56:41.262Z,17.30
2022-08-26T10:59:16.070Z,19.60
2022-08-26T11:01:47.038Z,17.77
2022-08-26T11:04:48.462Z,20.20
2022-08-26T11:07:37.813Z,24.63
2022-08-26T11:10:14.019Z,22.17
2022-08-26T11:12:53.453Z,23.07
2022-08-26T11:15:53.187Z,24.88
2022-08-26T11:18:48.746Z,23.02
2022-08-26T11:22:05.982Z,27.10
2022-08-26T11:25:03.336Z,27.67
2022-08-26T11:28:08.575Z,28.25
2022-08-26T11:30:57.860Z,28.55
2022-08-26T11:33:51.019Z,25.48
2022-08-26T11:36:38.259Z,22.50
2022-08-26T11:39:18.967Z,30.52
2022-08-26T11:41:52.918Z,21.95
2022-08-26T11:44:24.819Z,17.80
2022-08-26T11:46:59.496Z,17.42
2022-08-26T11:49:29.745Z,16.40
2022-08-26T11:52:20.737Z,17.73
2022-08-26T11:55:04.626Z,19.27
2022-08-26T11:57:36.830Z,17.20
2022-08-26T12:00:12.529Z,18.90
2022-08-26T12:02:46.855Z,13.98
2022-08-26T12:05:20.166Z,17.02
2022-08-26T12:07:52.462Z,15.70
2022-08-26T12:10:30.122Z,24.23
2022-08-26T12:13:01.853Z,14.20
2022-08-26T12:15:33.152Z,19.52
2022-08-26T12:18:29.159Z,18.58
2022-08-26T12:21:02.071Z,16.10
2022-08-26T12:23:43.877Z,21.05
2022-08-26T12:26:17.312Z,16.60
2022-08-26T12:28:48.064Z,13.55
2022-08-26T12:31:25.122Z,14.25
2022-08-26T12:33:59.160Z,16.38
2022-08-26T12:36:32.487Z,17.88
2022-08-26T12:39:10.438Z,11.55
2022-08-26T12:41:50.458Z,17.63
2022-08-26T12:44:39.730Z,17.38
2022-08-26T12:47:12.118Z,20.40
2022-08-26T12:49:46.392Z,18.27
2022-08-26T12:52:30.025Z,21.17
2022-08-26T12:55:02.673Z,16.63
2022-08-26T12:57:35.349Z,19.08
2022-08-26T13:00:40.932Z,16.60
2022-08-26T13:03:32.197Z,13.90
2022-08-26T13:06:16.653Z,13.75
2022-08-26T13:08:47.472Z,13.10
2022-08-26T13:11:20.651Z,13.60
2022-08-26T13:13:51.656Z,13.93
2022-08-26T13:16:21.755Z,14.73
2022-08-26T13:18:52.799Z,17.42
2022-08-26T13:21:26.967Z,19.38
2022-08-26T13:23:57.588Z,11.98
2022-08-26T13:26:27.395Z,46.97
2022-08-26T13:29:01.603Z,44.38
2022-08-26T13:31:32.973Z,15.48
2022-08-26T13:34:03.669Z,14.20
2022-08-26T13:36:36.044Z,12.43
2022-08-26T13:39:08.460Z,17.90
2022-08-26T13:41:38.445Z,9.63
2022-08-26T13:44:08.533Z,12.63
2022-08-26T13:46:39.123Z,13.10
2022-08-26T13:49:09.131Z,12.50
2022-08-26T13:51:41.828Z,9.38
2022-08-26T13:54:11.573Z,12.10
2022-08-26T13:56:41.312Z,16.65
2022-08-26T13:59:11.036Z,12.80
2022-08-26T14:01:40.741Z,25.30
2022-08-26T14:04:10.433Z,26.40
2022-08-26T14:06:42.820Z,80.78
2022-08-26T14:09:12.458Z,24.33
2022-08-26T14:11:54.632Z,30.30
2022-08-26T14:14:25.132Z,14.00
2022-08-26T14:16:59.379Z,34.70
2022-08-26T14:19:30.559Z,17.92
2022-08-26T14:22:03.479Z,15.57
2022-08-26T14:24:33.201Z,14.13
2022-08-26T14:27:02.905Z,15.23
2022-08-26T14:29:32.762Z,11.02
2022-08-26T14:32:06.825Z,11.07
2022-08-26T14:34:36.786Z,9.63
2022-08-26T14:37:11.462Z,14.15
2022-08-26T14:39:43.300Z,13.80
2022-08-26T14:42:15.128Z,8.00
2022-08-26T14:44:48.300Z,11.30
2022-08-26T14:47:18.085Z,8.07
2022-08-26T14:49:47.782Z,9.40
2022-08-26T14:52:20.351Z,13.53
2022-08-26T14:54:47.489Z,9.17
2022-08-26T14:57:24.525Z,10.60
2022-08-26T14:59:54.224Z,10.63
2022-08-26T15:02:32.924Z,9.43
2022-08-26T15:05:04.109Z,15.73
2022-08-26T15:07:36.402Z,10.05
2022-08-26T15:10:07.232Z,15.60
2022-08-26T15:12:36.936Z,10.43
2022-08-26T15:15:07.418Z,7.80
2022-08-26T15:17:37.145Z,14.25
2022-08-26T15:20:08.355Z,12.37
2022-08-26T15:22:42.319Z,12.93
2022-08-26T15:25:13.339Z,18.50
2022-08-26T15:27:43.111Z,9.85
2022-08-26T15:30:16.314Z,14.10
2022-08-26T15:32:46.027Z,12.38
2022-08-26T15:35:15.715Z,15.10
2022-08-26T15:37:48.018Z,8.95
2022-08-26T15:40:18.533Z,8.95
2022-08-26T15:42:57.502Z,11.90
2022-08-26T15:45:31.111Z,10.18
2022-08-26T15:48:02.847Z,11.15
2022-08-26T15:50:32.876Z,9.63
2022-08-26T15:53:05.597Z,13.35
2022-08-26T15:55:35.245Z,12.43
2022-08-26T15:58:05.146Z,11.05
2022-08-26T16:00:34.869Z,8.15
2022-08-26T16:03:06.663Z,11.63
2022-08-26T16:05:39.111Z,7.28
2022-08-26T16:08:11.761Z,11.70
2022-08-26T16:10:47.898Z,9.88
2022-08-26T16:13:21.164Z,17.45
2022-08-26T16:15:52.454Z,10.43
2022-08-26T16:18:23.641Z,11.48
2022-08-26T16:21:12.821Z,11.05
2022-08-26T16:23:46.274Z,11.80
2022-08-26T16:26:17.560Z,11.97
2022-08-26T16:28:47.479Z,9.27
2022-08-26T16:31:17.659Z,11.60
2022-08-26T16:33:47.420Z,10.67
2022-08-26T16:36:17.638Z,10.20
2022-08-26T16:38:55.640Z,9.50
2022-08-26T16:41:25.877Z,11.30
2022-08-26T16:43:56.095Z,7.32
2022-08-26T16:46:27.094Z,10.80
2022-08-26T16:48:57.402Z,8.05
2022-08-26T16:51:29.101Z,9.23
2022-08-26T16:54:02.056Z,10.35
2022-08-26T16:56:34.610Z,8.48
2022-08-26T16:59:05.074Z,10.02
2022-08-26T17:01:34.825Z,13.32
2022-08-26T17:04:04.553Z,9.93
2022-08-26T17:06:34.228Z,10.23
2022-08-26T17:09:06.752Z,12.30
2022-08-26T17:11:36.957Z,9.98
2022-08-26T17:14:07.657Z,8.82
2022-08-26T17:16:37.339Z,10.20
2022-08-26T17:19:08.179Z,6.93
2022-08-26T17:21:39.016Z,7.60
2022-08-26T17:24:11.427Z,6.60
2022-08-26T17:26:44.242Z,6.57
2022-08-26T17:29:18.108Z,10.63
2022-08-26T17:31:47.772Z,8.17
2022-08-26T17:34:17.524Z,8.32
2022-08-26T17:36:47.279Z,6.47
2022-08-26T17:39:19.821Z,8.27
2022-08-26T17:41:49.651Z,7.90
2022-08-26T17:44:19.356Z,9.38
2022-08-26T17:46:49.089Z,10.50
2022-08-26T17:49:18.857Z,8.53
2022-08-26T17:51:48.559Z,7.72
2022-08-26T17:54:21.010Z,6.60
2022-08-26T17:56:50.642Z,7.05
2022-08-26T17:59:20.504Z,12.77
2022-08-26T18:01:51.640Z,7.47
2022-08-26T18:04:21.455Z,9.15
2022-08-26T18:06:51.144Z,10.30
2022-08-26T18:09:23.467Z,17.42
2022-08-26T18:11:53.874Z,14.32
2022-08-26T18:14:23.523Z,9.18
2022-08-26T18:16:53.228Z,20.52
2022-08-26T18:19:23.042Z,11.55
2022-08-26T18:21:53.071Z,7.22
2022-08-26T18:24:25.369Z,11.43
2022-08-26T18:26:54.980Z,7.43
2022-08-26T18:29:25.416Z,8.13
2022-08-26T18:31:55.207Z,7.50
2022-08-26T18:34:25.062Z,11.93
2022-08-26T18:37:01.511Z,9.65
2022-08-26T18:39:34.258Z,11.98
2022-08-26T18:42:04.745Z,10.88
2022-08-26T18:44:34.473Z,6.57
2022-08-26T18:47:04.392Z,10.73
2022-08-26T18:49:34.431Z,13.90
2022-08-26T18:52:04.304Z,10.13
2022-08-26T18:54:36.642Z,11.38
2022-08-26T18:57:06.667Z,10.60
2022-08-26T18:59:36.899Z,14.15
2022-08-26T19:02:06.749Z,11.38
2022-08-26T19:04:38.342Z,8.40
2022-08-26T19:07:08.428Z,12.18
2022-08-26T19:09:40.727Z,7.77
2022-08-26T19:12:11.549Z,6.95
2022-08-26T19:14:41.870Z,13.00
2022-08-26T19:17:12.465Z,8.30
2022-08-26T19:19:42.172Z,7.65
2022-08-26T19:22:11.873Z,9.80
2022-08-26T19:24:44.156Z,8.85
2022-08-26T19:27:15.025Z,8.60
2022-08-26T19:29:44.953Z,9.23
2022-08-26T19:32:14.655Z,13.65
2022-08-26T19:34:44.371Z,8.20
2022-08-26T19:37:14.059Z,10.80
2022-08-26T19:39:46.361Z,9.48
2022-08-26T19:42:16.555Z,9.97
2022-08-26T19:44:58.907Z,9.00
2022-08-26T19:47:28.602Z,8.30
2022-08-26T19:49:59.056Z,6.60
2022-08-26T19:52:29.903Z,8.27
2022-08-26T19:55:03.720Z,9.25
2022-08-26T19:57:33.367Z,6.97
2022-08-26T20:00:03.100Z,9.80
2022-08-26T20:02:34.494Z,6.93
2022-08-26T20:05:05.353Z,6.28
2022-08-26T20:07:35.189Z,13.30
2022-08-26T20:10:09.294Z,6.10
2022-08-26T20:12:38.928Z,7.55
2022-08-26T20:15:09.756Z,7.20
2022-08-26T20:17:40.088Z,7.40
2022-08-26T20:20:32.764Z,6.28
2022-08-26T20:23:05.213Z,9.07
2022-08-26T20:25:37.686Z,6.35
2022-08-26T20:28:11.049Z,7.72
2022-08-26T20:30:40.897Z,6.38
2022-08-26T20:33:10.605Z,6.10
2022-08-26T20:35:40.294Z,10.53
2022-08-26T20:38:10.461Z,6.25
2022-08-26T20:40:43.624Z,7.22
2022-08-26T20:43:13.372Z,8.57
2022-08-26T20:45:43.065Z,12.32
2022-08-26T20:48:12.830Z,7.35
2022-08-26T20:50:42.664Z,13.43
2022-08-26T20:53:12.337Z,6.82
2022-08-26T20:55:45.105Z,8.73
2022-08-26T20:58:14.815Z,13.05
2022-08-26T21:00:44.499Z,7.68
2022-08-26T21:03:14.378Z,9.68
2022-08-26T21:05:44.168Z,9.07
2022-08-26T21:08:13.818Z,6.55
2022-08-26T21:10:46.133Z,6.93
2022-08-26T21:13:16.197Z,8.80
2022-08-26T21:15:45.873Z,16.13
2022-08-26T21:18:15.680Z,11.18
2022-08-26T21:20:45.369Z,11.88
2022-08-26T21:23:15.077Z,12.63
2022-08-26T21:25:47.389Z,7.40
2022-08-26T21:28:17.042Z,9.35
2022-08-26T21:30:46.731Z,11.00
2022-08-26T21:33:16.369Z,9.75
2022-08-26T21:35:54.021Z,8.27
2022-08-26T21:38:23.818Z,8.70
2022-08-26T21:41:03.330Z,11.88
2022-08-26T21:43:35.439Z,15.15
2022-08-26T21:46:11.559Z,9.38
2022-08-26T21:48:42.661Z,10.00
2022-08-26T21:51:13.506Z,13.65
2022-08-26T21:53:43.391Z,11.82
2022-08-26T21:56:18.120Z,9.50
2022-08-26T21:58:47.957Z,16.77
2022-08-26T22:01:21.936Z,10.70
2022-08-26T22:03:52.642Z,10.20
2022-08-26T22:06:25.789Z,11.82
2022-08-26T22:08:56.336Z,12.10
2022-08-26T22:11:29.370Z,8.88
2022-08-26T22:13:59.371Z,12.43
2022-08-26T22:16:29.455Z,12.35
2022-08-26T22:18:59.657Z,12.13
2022-08-26T22:21:30.579Z,11.05
2022-08-26T22:24:00.888Z,11.38
2022-08-26T22:26:35.517Z,11.95
2022-08-26T22:29:06.680Z,9.98
2022-08-26T22:31:38.758Z,13.63
2022-08-26T22:34:10.414Z,9.23
2022-08-26T22:36:43.026Z,11.48
2022-08-26T22:39:14.473Z,15.13
2022-08-26T22:41:48.634Z,13.50
2022-08-26T22:44:19.254Z,13.82
2022-08-26T22:46:49.772Z,15.63
2022-08-26T22:49:19.655Z,18.90
2022-08-26T22:51:49.619Z,15.25
2022-08-26T22:54:19.389Z,14.93
2022-08-26T22:56:51.684Z,13.97
2022-08-26T22:59:21.307Z,14.80
2022-08-26T23:01:51.634Z,14.35
2022-08-26T23:04:21.982Z,16.90
2022-08-26T23:06:51.736Z,16.33
2022-08-26T23:09:21.760Z,16.08
2022-08-26T23:11:54.957Z,15.17
2022-08-26T23:14:24.715Z,17.83
2022-08-26T23:16:54.663Z,16.15
2022-08-26T23:19:25.174Z,15.07
2022-08-26T23:21:54.842Z,15.25
2022-08-26T23:24:24.503Z,14.07
2022-08-26T23:26:56.740Z,17.73
2022-08-26T23:29:26.456Z,15.57
2022-08-26T23:31:57.181Z,15.43
2022-08-26T23:34:39.122Z,14.27
2022-08-26T23:37:09.228Z,17.52
2022-08-26T23:39:39.074Z,19.88
2022-08-26T23:42:12.421Z,15.10
2022-08-26T23:44:42.296Z,16.20
2022-08-26T23:47:11.964Z,16.93
2022-08-26T23:49:41.787Z,14.82
2022-08-26T23:52:24.000Z,15.50
2022-08-26T23:54:53.932Z,13.77
2022-08-26T23:57:27.330Z,14.48
2022-08-26T23:59:57.461Z,18.95
